createdAt,value
2017-11-27T00:02:07.561Z,3.20
2017-11-27T00:04:36.085Z,3.20
2017-11-27T00:07:04.650Z,3.10
2017-11-27T00:09:34.917Z,3.10
2017-11-27T00:12:03.260Z,3.10
2017-11-27T00:17:07.151Z,3.20
2017-11-27T00:19:36.383Z,3.20
2017-11-27T00:22:04.747Z,3.20
2017-11-27T00:24:33.085Z,3.20
2017-11-27T00:27:01.444Z,3.20
2017-11-27T00:29:29.794Z,3.20
2017-11-27T00:31:58.154Z,3.20
2017-11-27T00:34:26.175Z,3.20
2017-11-27T00:36:54.528Z,3.20
2017-11-27T00:39:22.898Z,3.20
2017-11-27T00:41:51.238Z,3.20
2017-11-27T00:44:20.380Z,3.20
2017-11-27T00:46:48.740Z,3.20
2017-11-27T00:49:17.087Z,3.20
2017-11-27T00:51:46.321Z,3.20
2017-11-27T00:54:14.481Z,3.20
2017-11-27T00:56:42.651Z,3.20
2017-11-27T00:59:10.823Z,3.20
2017-11-27T01:01:39.001Z,3.20
2017-11-27T01:04:07.175Z,3.20
2017-11-27T01:06:35.522Z,3.20
2017-11-27T01:09:03.982Z,3.20
2017-11-27T01:11:32.131Z,3.20
2017-11-27T01:14:00.487Z,3.20
2017-11-27T01:16:28.842Z,3.20
2017-11-27T01:18:58.158Z,3.10
2017-11-27T01:21:26.514Z,3.10
2017-11-27T01:23:55.634Z,3.10
2017-11-27T01:26:24.040Z,3.10
2017-11-27T01:28:52.392Z,3.10
2017-11-27T01:31:20.744Z,3.10
2017-11-27T01:33:49.866Z,3.10
2017-11-27T01:36:18.218Z,3.10
2017-11-27T01:38:47.350Z,3.10
2017-11-27T01:41:15.696Z,3.10
2017-11-27T01:43:45.008Z,3.10
2017-11-27T01:46:13.387Z,3.10
2017-11-27T01:48:41.733Z,3.10
2017-11-27T01:51:10.093Z,3.10
2017-11-27T01:53:38.446Z,3.10
2017-11-27T01:56:06.466Z,3.10
2017-11-27T01:58:35.592Z,3.10
2017-11-27T02:01:03.605Z,3.00
2017-11-27T02:03:31.982Z,3.10
2017-11-27T02:06:00.330Z,3.10
2017-11-27T02:08:28.698Z,3.00
2017-11-27T02:10:56.872Z,3.10
2017-11-27T02:13:25.218Z,3.00
2017-11-27T02:15:54.171Z,3.00
2017-11-27T02:18:22.521Z,3.00
2017-11-27T02:20:50.863Z,3.00
2017-11-27T02:23:19.671Z,3.00
2017-11-27T02:25:48.954Z,3.00
2017-11-27T02:28:18.116Z,3.00
2017-11-27T02:30:46.457Z,3.00
2017-11-27T02:33:14.802Z,3.00
2017-11-27T02:35:43.923Z,3.00
2017-11-27T02:38:12.287Z,3.00
2017-11-27T02:40:40.698Z,3.00
2017-11-27T02:43:09.043Z,2.90
2017-11-27T02:45:37.822Z,2.90
2017-11-27T02:48:08.488Z,3.00
2017-11-27T02:50:36.830Z,2.90
2017-11-27T02:53:05.963Z,3.00
2017-11-27T02:55:34.303Z,2.90
2017-11-27T02:58:03.091Z,2.90
2017-11-27T03:00:32.213Z,2.90
2017-11-27T03:03:00.570Z,2.90
2017-11-27T03:05:29.222Z,2.90
2017-11-27T03:07:58.726Z,2.80
2017-11-27T03:10:27.065Z,2.80
2017-11-27T03:12:55.086Z,2.80
2017-11-27T03:15:23.434Z,2.80
2017-11-27T03:17:51.795Z,2.80
2017-11-27T03:20:19.809Z,2.80
2017-11-27T03:22:48.150Z,2.80
2017-11-27T03:25:16.512Z,2.80
2017-11-27T03:27:44.857Z,2.80
2017-11-27T03:30:13.997Z,2.90
2017-11-27T03:32:42.154Z,2.80
2017-11-27T03:35:10.314Z,2.80
2017-11-27T03:37:38.668Z,2.80
2017-11-27T03:40:07.031Z,2.80
2017-11-27T03:42:35.204Z,2.80
2017-11-27T03:45:03.772Z,2.80
2017-11-27T03:47:32.110Z,2.80
2017-11-27T03:50:00.479Z,2.80
2017-11-27T03:52:28.815Z,2.80
2017-11-27T03:54:57.201Z,2.80
2017-11-27T03:57:26.362Z,2.80
2017-11-27T04:12:58.782Z,2.80
2017-11-27T04:15:26.572Z,2.80
2017-11-27T04:17:54.270Z,2.80
2017-11-27T04:20:22.430Z,2.90
2017-11-27T04:22:50.790Z,2.90
2017-11-27T04:25:19.128Z,2.90
2017-11-27T04:27:48.279Z,2.80
2017-11-27T04:30:16.304Z,2.80
2017-11-27T04:32:45.411Z,2.80
2017-11-27T04:35:13.436Z,2.80
2017-11-27T04:37:41.786Z,2.90
2017-11-27T04:40:10.367Z,2.90
2017-11-27T04:42:38.911Z,3.00
2017-11-27T04:45:08.230Z,3.00
2017-11-27T04:47:36.603Z,3.00
2017-11-27T04:50:04.947Z,3.10
2017-11-27T04:52:33.326Z,3.20
2017-11-27T04:55:01.681Z,3.20
2017-11-27T04:57:30.223Z,3.30
2017-11-27T04:59:58.573Z,3.30
2017-11-27T05:02:27.687Z,3.30
2017-11-27T05:04:56.062Z,3.30
2017-11-27T05:07:24.414Z,3.40
2017-11-27T05:09:53.537Z,3.40
2017-11-27T05:12:21.894Z,3.50
2017-11-27T05:14:51.010Z,3.50
2017-11-27T05:17:19.381Z,3.50
2017-11-27T05:19:48.503Z,3.60
2017-11-27T05:22:16.661Z,3.60
2017-11-27T05:24:44.826Z,3.60
2017-11-27T05:27:13.176Z,3.70
2017-11-27T05:29:42.322Z,3.70
2017-11-27T05:32:10.674Z,3.70
2017-11-27T05:34:39.795Z,3.80
2017-11-27T05:37:08.161Z,3.80
2017-11-27T05:39:36.508Z,3.90
2017-11-27T05:42:05.050Z,3.90
2017-11-27T05:44:33.400Z,3.90
2017-11-27T05:47:01.755Z,3.90
2017-11-27T05:49:30.858Z,4.00
2017-11-27T05:51:59.234Z,4.00
2017-11-27T05:54:27.388Z,4.00
2017-11-27T05:56:55.734Z,4.00
2017-11-27T05:59:24.100Z,4.00
2017-11-27T06:01:52.444Z,4.00
2017-11-27T06:04:20.819Z,4.10
2017-11-27T06:06:49.174Z,4.00
2017-11-27T06:09:17.732Z,4.10
2017-11-27T06:11:46.083Z,4.10
2017-11-27T06:14:14.430Z,4.10
2017-11-27T06:16:42.795Z,4.00
2017-11-27T06:19:11.974Z,4.00
2017-11-27T06:21:40.362Z,4.00
2017-11-27T06:24:09.479Z,4.00
2017-11-27T06:26:37.825Z,4.00
2017-11-27T06:29:06.263Z,3.90
2017-11-27T06:31:34.623Z,3.90
2017-11-27T06:34:02.984Z,3.90
2017-11-27T06:36:32.095Z,3.90
2017-11-27T06:39:00.253Z,3.90
2017-11-27T06:41:29.185Z,3.90
2017-11-27T06:43:57.349Z,3.80
2017-11-27T06:46:25.534Z,3.80
2017-11-27T06:48:53.887Z,3.80
2017-11-27T06:51:22.051Z,3.80
2017-11-27T06:53:51.490Z,3.80
2017-11-27T06:56:20.613Z,3.80
2017-11-27T06:58:48.643Z,3.80
2017-11-27T07:01:17.019Z,3.70
2017-11-27T07:03:45.180Z,3.70
2017-11-27T07:06:13.527Z,3.80
2017-11-27T07:08:42.651Z,3.80
2017-11-27T07:11:11.015Z,3.70
2017-11-27T07:13:40.126Z,3.80
2017-11-27T07:16:08.465Z,3.80
2017-11-27T07:18:36.819Z,3.80
2017-11-27T07:21:05.272Z,3.80
2017-11-27T07:23:33.643Z,3.80
2017-11-27T07:26:01.982Z,3.90
2017-11-27T07:28:31.091Z,4.00
2017-11-27T07:31:00.290Z,4.00
2017-11-27T07:33:29.215Z,4.00
2017-11-27T07:35:57.574Z,4.00
2017-11-27T07:38:31.413Z,4.10
2017-11-27T07:40:59.796Z,4.10
2017-11-27T07:43:28.134Z,4.20
2017-11-27T07:45:56.606Z,4.20
2017-11-27T07:48:25.730Z,4.20
2017-11-27T07:50:54.085Z,4.20
2017-11-27T07:53:22.458Z,4.30
2017-11-27T07:55:50.804Z,4.30
2017-11-27T07:58:19.148Z,4.30
2017-11-27T08:00:47.490Z,4.30
2017-11-27T08:03:15.835Z,4.30
2017-11-27T08:05:44.210Z,4.40
2017-11-27T08:08:12.760Z,4.40
2017-11-27T08:10:41.142Z,4.40
2017-11-27T08:13:09.506Z,4.50
2017-11-27T08:15:37.859Z,4.50
2017-11-27T08:18:06.798Z,4.50
2017-11-27T08:20:35.254Z,4.50
2017-11-27T08:23:03.445Z,4.60
2017-11-27T08:25:31.809Z,4.60
2017-11-27T08:28:00.147Z,4.60
2017-11-27T08:30:29.276Z,4.70
2017-11-27T08:32:57.635Z,4.70
2017-11-27T08:35:25.990Z,4.70
2017-11-27T08:37:54.599Z,4.70
2017-11-27T08:40:23.114Z,4.80
2017-11-27T08:42:51.480Z,4.80
2017-11-27T08:45:19.853Z,4.80
2017-11-27T08:47:49.138Z,4.80
2017-11-27T08:50:17.161Z,4.80
2017-11-27T08:52:45.296Z,4.80
2017-11-27T08:55:13.653Z,4.90
2017-11-27T08:57:41.995Z,4.90
2017-11-27T09:00:10.343Z,4.90
2017-11-27T09:02:38.711Z,4.90
2017-11-27T09:05:07.055Z,5.00
2017-11-27T09:07:36.214Z,5.10
2017-11-27T09:10:04.558Z,5.10
2017-11-27T09:12:32.904Z,5.10
2017-11-27T09:15:02.054Z,5.20
2017-11-27T09:17:30.286Z,5.20
2017-11-27T09:19:58.834Z,5.20
2017-11-27T09:22:27.179Z,5.20
2017-11-27T09:24:55.518Z,5.30
2017-11-27T09:27:23.874Z,5.20
2017-11-27T09:29:52.218Z,5.20
2017-11-27T09:32:20.784Z,5.30
2017-11-27T09:34:49.136Z,5.30
2017-11-27T09:37:17.488Z,5.30
2017-11-27T09:39:45.853Z,5.30
2017-11-27T09:42:14.190Z,5.30
2017-11-27T09:44:42.556Z,5.30
2017-11-27T09:47:10.916Z,5.40
2017-11-27T09:49:40.033Z,5.40
2017-11-27T09:52:08.595Z,5.40
2017-11-27T09:54:37.201Z,5.40
2017-11-27T09:57:05.538Z,5.40
2017-11-27T09:59:33.896Z,5.40
2017-11-27T10:02:02.262Z,5.50
2017-11-27T10:04:30.604Z,5.50
2017-11-27T10:06:58.990Z,5.60
2017-11-27T10:09:27.334Z,5.60
2017-11-27T10:11:56.446Z,5.60
2017-11-27T10:14:24.806Z,5.60
2017-11-27T10:16:53.775Z,5.60
2017-11-27T10:19:22.153Z,5.50
2017-11-27T10:21:50.523Z,5.60
2017-11-27T10:24:18.880Z,5.60
2017-11-27T10:26:47.226Z,5.60
2017-11-27T10:29:15.604Z,5.50
2017-11-27T10:31:43.961Z,5.60
2017-11-27T10:34:13.077Z,5.50
2017-11-27T10:36:41.441Z,5.50
2017-11-27T10:39:10.556Z,5.60
2017-11-27T10:41:38.901Z,5.50
2017-11-27T10:44:07.268Z,5.50
2017-11-27T10:46:35.611Z,5.40
2017-11-27T10:49:03.967Z,5.50
2017-11-27T10:51:32.340Z,5.50
2017-11-27T10:54:00.686Z,5.40
2017-11-27T10:56:28.705Z,5.50
2017-11-27T10:58:57.098Z,5.40
2017-11-27T11:01:24.796Z,5.40
2017-11-27T11:03:52.823Z,5.50
2017-11-27T11:06:20.881Z,5.50
2017-11-27T11:08:49.263Z,5.40
2017-11-27T11:11:17.644Z,5.40
2017-11-27T11:13:46.050Z,5.50
2017-11-27T11:16:13.923Z,5.50
2017-11-27T11:18:42.283Z,5.50
2017-11-27T11:21:09.991Z,5.50
2017-11-27T11:23:38.787Z,5.50
2017-11-27T11:26:07.914Z,5.50
2017-11-27T11:28:36.428Z,5.50
2017-11-27T11:31:04.590Z,5.50
2017-11-27T11:33:32.947Z,5.50
2017-11-27T11:36:01.307Z,5.50
2017-11-27T11:38:29.659Z,5.50
2017-11-27T11:40:58.781Z,5.60
2017-11-27T11:43:26.810Z,5.60
2017-11-27T11:45:55.159Z,5.50
2017-11-27T11:48:23.508Z,5.60
2017-11-27T11:50:51.877Z,5.60
2017-11-27T11:53:20.223Z,5.60
2017-11-27T11:55:47.904Z,5.60
2017-11-27T11:58:16.402Z,5.60
2017-11-27T12:00:44.434Z,5.50
2017-11-27T12:03:12.786Z,5.60
2017-11-27T12:05:41.194Z,5.60
2017-11-27T12:08:09.736Z,5.50
2017-11-27T12:10:38.084Z,5.60
2017-11-27T12:13:06.460Z,5.50
2017-11-27T12:15:34.820Z,5.60
2017-11-27T12:18:03.943Z,5.50
2017-11-27T12:20:32.323Z,5.50
2017-11-27T12:23:00.681Z,5.50
2017-11-27T12:25:29.795Z,5.50
2017-11-27T12:27:58.156Z,5.50
2017-11-27T12:30:27.382Z,5.50
2017-11-27T12:32:55.750Z,5.50
2017-11-27T12:35:24.116Z,5.50
2017-11-27T12:37:52.287Z,5.50
2017-11-27T12:40:20.296Z,5.50
2017-11-27T12:42:48.480Z,5.50
2017-11-27T12:45:16.820Z,5.50
2017-11-27T12:47:45.011Z,5.50
2017-11-27T12:50:13.190Z,5.50
2017-11-27T12:52:41.364Z,5.50
2017-11-27T12:55:09.198Z,5.50
2017-11-27T12:57:38.324Z,5.50
2017-11-27T13:00:06.344Z,5.40
2017-11-27T13:02:35.330Z,5.50
2017-11-27T13:05:04.472Z,5.50
2017-11-27T13:07:32.821Z,5.40
2017-11-27T13:10:01.951Z,5.40
2017-11-27T13:12:29.670Z,5.40
2017-11-27T13:14:58.465Z,5.40
2017-11-27T13:17:27.587Z,5.40
2017-11-27T13:19:55.970Z,5.40
2017-11-27T13:22:24.554Z,5.50
2017-11-27T13:24:53.844Z,5.60
2017-11-27T13:27:22.207Z,5.50
2017-11-27T13:29:50.562Z,5.60
2017-11-27T13:32:19.688Z,5.60
2017-11-27T13:34:48.816Z,5.60
2017-11-27T13:37:17.172Z,5.60
2017-11-27T13:39:45.520Z,5.60
2017-11-27T13:42:14.872Z,5.60
2017-11-27T13:44:42.893Z,5.60
2017-11-27T13:47:11.263Z,5.60
2017-11-27T13:49:40.401Z,5.60
2017-11-27T13:52:08.761Z,5.60
2017-11-27T13:54:37.122Z,5.70
2017-11-27T13:57:06.350Z,5.70
2017-11-27T13:59:34.695Z,5.70
2017-11-27T14:02:03.817Z,5.60
2017-11-27T14:04:32.317Z,5.60
2017-11-27T14:07:00.691Z,5.60
2017-11-27T14:09:29.810Z,5.60
2017-11-27T14:11:58.191Z,5.60
2017-11-27T14:14:26.548Z,5.70
2017-11-27T14:16:54.905Z,5.70
2017-11-27T14:19:23.293Z,5.70
2017-11-27T14:21:51.646Z,5.70
2017-11-27T14:24:19.814Z,5.70
2017-11-27T14:26:48.371Z,5.70
2017-11-27T14:29:16.883Z,5.70
2017-11-27T14:31:45.237Z,5.70
2017-11-27T14:34:14.367Z,5.70
2017-11-27T14:36:42.707Z,5.70
2017-11-27T14:39:10.407Z,5.70
2017-11-27T14:41:38.125Z,5.70
2017-11-27T14:44:06.012Z,5.80
2017-11-27T14:46:34.470Z,5.80
2017-11-27T14:49:02.290Z,5.80
2017-11-27T14:51:29.967Z,5.80
2017-11-27T14:53:57.987Z,5.80
2017-11-27T14:56:26.799Z,5.70
2017-11-27T14:58:54.487Z,5.70
2017-11-27T15:01:22.170Z,5.80
2017-11-27T15:03:50.571Z,5.80
2017-11-27T15:06:19.029Z,5.80
2017-11-27T15:08:46.743Z,5.80
2017-11-27T15:11:15.219Z,5.80
2017-11-27T15:13:42.912Z,5.80
2017-11-27T15:16:11.367Z,5.80
2017-11-27T15:18:39.076Z,5.80
2017-11-27T15:21:06.804Z,5.80
2017-11-27T15:23:34.493Z,5.80
2017-11-27T15:26:02.197Z,5.90
2017-11-27T15:28:30.663Z,5.80
2017-11-27T15:30:59.133Z,5.80
2017-11-27T15:33:26.874Z,5.80
2017-11-27T15:35:54.568Z,5.80
2017-11-27T15:38:23.028Z,5.90
2017-11-27T15:40:50.751Z,5.80
2017-11-27T15:43:18.470Z,5.80
2017-11-27T15:45:46.209Z,5.90
2017-11-27T15:48:13.893Z,5.90
2017-11-27T15:50:41.775Z,5.90
2017-11-27T15:53:10.234Z,5.90
2017-11-27T15:55:37.960Z,5.90
2017-11-27T15:58:05.653Z,5.90
2017-11-27T16:00:33.160Z,5.90
2017-11-27T16:03:00.891Z,5.90
2017-11-27T16:05:29.483Z,5.90
2017-11-27T16:07:58.580Z,6.00
2017-11-27T16:10:27.448Z,6.00
2017-11-27T16:12:55.283Z,5.90
2017-11-27T16:15:23.308Z,6.00
2017-11-27T16:17:51.809Z,6.00
2017-11-27T16:20:19.890Z,5.90
2017-11-27T16:22:47.644Z,6.00
2017-11-27T16:25:15.369Z,6.00
2017-11-27T16:27:44.242Z,6.00
2017-11-27T16:30:11.937Z,6.00
2017-11-27T16:32:40.490Z,6.00
2017-11-27T16:35:08.270Z,6.00
2017-11-27T16:37:39.600Z,6.00
2017-11-27T16:40:07.320Z,6.00
2017-11-27T16:42:35.541Z,6.00
2017-11-27T16:45:03.349Z,6.00
2017-11-27T16:47:32.334Z,6.10
2017-11-27T16:50:00.420Z,6.00
2017-11-27T16:52:28.209Z,6.00
2017-11-27T16:54:55.959Z,6.10
2017-11-27T16:57:23.663Z,6.10
2017-11-27T16:59:51.383Z,6.10
2017-11-27T17:04:48.452Z,6.10
2017-11-27T17:07:17.327Z,6.20
2017-11-27T17:09:45.028Z,6.10
2017-11-27T17:12:12.719Z,6.10
2017-11-27T17:14:41.203Z,6.20
2017-11-27T17:17:09.666Z,6.20
2017-11-27T17:19:37.689Z,6.20
2017-11-27T17:22:05.393Z,6.20
2017-11-27T17:24:32.892Z,6.20
2017-11-27T17:27:00.595Z,6.20
2017-11-27T17:29:28.297Z,6.30
2017-11-27T17:31:56.776Z,6.30
2017-11-27T17:34:25.237Z,6.30
2017-11-27T17:36:52.961Z,6.30
2017-11-27T17:39:20.824Z,6.30
2017-11-27T17:41:48.848Z,6.30
2017-11-27T17:44:17.472Z,6.40
2017-11-27T17:46:45.537Z,6.30
2017-11-27T17:49:13.614Z,6.40
2017-11-27T17:51:41.182Z,6.40
2017-11-27T17:54:08.935Z,6.40
2017-11-27T17:56:36.637Z,6.40
2017-11-27T17:59:04.680Z,6.30
2017-11-27T18:01:32.415Z,6.40
2017-11-27T18:04:00.456Z,6.40
2017-11-27T18:06:28.508Z,6.50
2017-11-27T18:08:56.204Z,6.40
2017-11-27T18:11:24.683Z,6.50
2017-11-27T18:13:53.164Z,6.60
2017-11-27T18:16:21.984Z,6.60
2017-11-27T18:18:49.683Z,6.50
2017-11-27T18:21:17.410Z,6.60
2017-11-27T18:23:45.847Z,6.60
2017-11-27T18:26:13.550Z,6.70
2017-11-27T18:28:41.285Z,6.60
2017-11-27T18:31:09.494Z,6.60
2017-11-27T18:33:37.554Z,6.60
2017-11-27T18:36:05.286Z,6.70
2017-11-27T18:38:33.750Z,6.70
2017-11-27T18:41:01.597Z,6.60
2017-11-27T18:43:29.150Z,6.60
2017-11-27T18:45:56.668Z,6.60
2017-11-27T18:48:25.324Z,6.70
2017-11-27T18:50:53.063Z,6.70
2017-11-27T18:53:20.776Z,6.80
2017-11-27T18:55:48.661Z,6.80
2017-11-27T18:58:17.312Z,6.80
2017-11-27T19:00:45.035Z,6.70
2017-11-27T19:03:12.717Z,6.80
2017-11-27T19:05:40.786Z,6.80
2017-11-27T19:08:08.655Z,6.80
2017-11-27T19:10:36.698Z,6.80
2017-11-27T19:13:04.431Z,6.80
2017-11-27T19:15:32.142Z,6.80
2017-11-27T19:17:59.854Z,6.80
2017-11-27T19:20:27.586Z,6.80
2017-11-27T19:22:56.381Z,6.80
2017-11-27T19:25:25.233Z,6.80
2017-11-27T19:27:52.969Z,6.80
2017-11-27T19:30:20.668Z,6.80
2017-11-27T19:32:48.499Z,6.80
2017-11-27T19:35:16.603Z,6.80
2017-11-27T19:37:44.399Z,6.70
2017-11-27T19:40:12.554Z,6.70
2017-11-27T19:42:41.078Z,6.80
2017-11-27T19:45:08.814Z,6.80
2017-11-27T19:47:36.823Z,6.90
2017-11-27T19:50:04.583Z,6.80
2017-11-27T19:52:32.796Z,6.80
2017-11-27T19:55:00.853Z,6.80
2017-11-27T19:57:28.659Z,6.80
2017-11-27T19:59:56.526Z,6.80
2017-11-27T20:02:25.673Z,6.80
2017-11-27T20:04:53.780Z,6.80
2017-11-27T20:07:21.404Z,6.80
2017-11-27T20:09:49.154Z,6.80
2017-11-27T20:12:16.903Z,6.80
2017-11-27T20:14:44.817Z,6.80
2017-11-27T20:17:12.526Z,6.80
2017-11-27T20:19:40.055Z,6.80
2017-11-27T20:22:08.523Z,6.90
2017-11-27T20:24:36.342Z,6.90
2017-11-27T20:27:04.091Z,6.80
2017-11-27T20:29:31.806Z,6.90
2017-11-27T20:32:00.300Z,6.80
2017-11-27T20:34:27.880Z,6.80
2017-11-27T20:36:56.347Z,6.80
2017-11-27T20:39:25.278Z,6.80
2017-11-27T20:41:54.073Z,6.80
2017-11-27T20:44:21.814Z,6.90
2017-11-27T20:46:49.608Z,6.90
2017-11-27T20:49:17.487Z,6.80
2017-11-27T20:51:46.235Z,6.90
2017-11-27T20:54:13.933Z,6.90
2017-11-27T20:56:41.694Z,6.90
2017-11-27T20:59:09.414Z,6.90
2017-11-27T21:01:38.204Z,6.90
2017-11-27T21:04:06.580Z,6.90
2017-11-27T21:06:35.696Z,6.90
2017-11-27T21:09:03.508Z,6.80
2017-11-27T21:11:31.435Z,6.80
2017-11-27T21:13:59.174Z,6.80
2017-11-27T21:16:26.863Z,6.80
2017-11-27T21:18:54.614Z,6.80
2017-11-27T21:21:22.627Z,6.70
2017-11-27T21:23:50.434Z,6.70
2017-11-27T21:26:18.466Z,6.80
2017-11-27T21:28:46.184Z,6.70
2017-11-27T21:31:14.219Z,6.80
2017-11-27T21:33:42.701Z,6.80
2017-11-27T21:36:11.152Z,6.80
2017-11-27T21:38:39.506Z,6.80
2017-11-27T21:41:07.262Z,6.80
2017-11-27T21:43:34.974Z,6.80
2017-11-27T21:46:02.672Z,6.80
2017-11-27T21:48:30.383Z,6.80
2017-11-27T21:50:58.743Z,6.80
2017-11-27T21:53:26.428Z,6.90
2017-11-27T21:55:54.823Z,6.90
2017-11-27T21:58:22.520Z,6.90
2017-11-27T22:00:50.531Z,6.80
2017-11-27T22:03:18.920Z,6.80
2017-11-27T22:05:46.615Z,6.80
2017-11-27T22:08:14.665Z,6.80
2017-11-27T22:10:43.476Z,6.90
2017-11-27T22:13:11.531Z,6.90
2017-11-27T22:15:39.996Z,6.80
2017-11-27T22:18:08.404Z,6.80
2017-11-27T22:20:37.928Z,6.80
2017-11-27T22:23:05.961Z,6.80
2017-11-27T22:25:33.872Z,6.80
2017-11-27T22:28:01.887Z,6.80
2017-11-27T22:30:29.567Z,6.80
2017-11-27T22:32:58.741Z,6.80
2017-11-27T22:35:26.769Z,6.80
2017-11-27T22:37:55.118Z,6.80
2017-11-27T22:40:23.168Z,6.80
2017-11-27T22:42:52.327Z,6.70
2017-11-27T22:45:20.368Z,6.70
2017-11-27T22:47:48.076Z,6.70
2017-11-27T22:50:15.775Z,6.70
2017-11-27T22:52:43.476Z,6.60
2017-11-27T22:55:11.524Z,6.30
2017-11-27T22:57:39.991Z,5.90
2017-11-27T23:00:09.113Z,5.60
2017-11-27T23:02:37.166Z,5.60
2017-11-27T23:05:05.521Z,5.50
2017-11-27T23:07:34.648Z,5.30
2017-11-27T23:10:03.032Z,5.20
2017-11-27T23:12:30.871Z,5.20
2017-11-27T23:14:58.569Z,5.10
2017-11-27T23:17:26.971Z,5.20
2017-11-27T23:19:54.660Z,5.10
2017-11-27T23:22:23.435Z,5.10
2017-11-27T23:24:51.491Z,5.10
2017-11-27T23:27:19.189Z,5.10
2017-11-27T23:29:47.963Z,5.10
2017-11-27T23:32:16.000Z,5.10
2017-11-27T23:34:44.365Z,5.10
2017-11-27T23:37:12.058Z,5.00
2017-11-27T23:39:40.094Z,5.00
2017-11-27T23:42:07.780Z,5.00
2017-11-27T23:44:35.479Z,5.00
2017-11-27T23:47:04.274Z,4.90
2017-11-27T23:49:33.399Z,5.00
2017-11-27T23:52:01.088Z,5.00
2017-11-27T23:54:29.127Z,4.90
2017-11-27T23:56:57.147Z,5.00
2017-11-27T23:59:24.839Z,5.00
